Página principal
METAR-TAF:

METAR-TAF

Aeroportos :

Curaçao, Antilhas Neerlandesas

Aeroporto Internacional Hato

latitude: 12-12N, longitude: 068-58W, altura: 9 m

Observação actual do tempo

O boletim foi feito há 58 minutos, às 06:00 UTC
Vento 11 kt de es-sudeste
Temperatura 27°C
Humidade 79%
Pressão 1013 hPa
Visibilidade: 8000 m
Poucas nuvensa uma altura de 1600 ft

METAR: TNCC 230600Z 11011KT 8000 FEW016 27/23 Q1013 NOSIG

Hora: 02:58 (06:58 UTC)

Previsão

O boletim foi feito há 3 horas e 58 minutos, às 03:00 UTC
Previsão válida de 23 às 06 UTC a 24 às 06 UTC
Vento 14 kt de este
Visibilidade 10 km ou mais
Nuvens dispersasa uma altura de 1800 ft
Temporariamente
de 23 às 08 UTC a 23 às 13 UTC
Nuvens fragmentadasa uma altura de 1500 ft

TAF: TNCC 230300Z 2306/2406 10014KT 9999 SCT018 TEMPO 2308/2313 BKN015

Observações e previsões do tempo de mais de 4000 aeroportos (mensagens METAR e TAF).

As estações disponíveis são os pontos amarelos e vermelhos sobre o mapa.

Mova o rato sobre o mapa para ver o nome da estação.

Depois clique no ponto para visualizar as observações e previsões meteorológicas.

Para alterar o mapa : clique nos botões verdes com uma cruz preta para aumentar o zoom; no botão verde com uma pitada de zoom; ou nas setas verdes para mapas adjacentes.


METAR-TAF: